Time;durP1;ratioP1;P1;durP2;ratioP2;P2;SDS_P1;SDS_P2;PMS_P1;PMS_P2;Temp;Humidity;BMP_temperature;BMP_pressure;BME280_temperature;BME280_humidity;BME280_pressure;Samples;Min_cycle;Max_cycle;Signal;HPM_P1;HPM_P2
2021/04/15 00:00:11;;;;;;;1.97;1.70;;;;;;;1.28;60.42;99949.47;5106550;28;42581;-73
2021/04/15 00:02:38;;;;;;;2.10;1.77;;;;;;;1.32;60.00;99959.03;5105256;28;42421;-73
2021/04/15 00:05:17;;;;;;;1.67;1.50;;;;;;;1.30;59.49;99963.38;5106196;28;41434;-73
2021/04/15 00:07:44;;;;;;;2.43;1.80;;;;;;;1.20;59.33;99943.47;5107264;28;38587;-73
2021/04/15 00:10:14;;;;;;;3.03;1.63;;;;;;;1.24;59.13;99963.41;5105724;28;41599;-73
2021/04/15 00:12:42;;;;;;;2.40;2.17;;;;;;;1.22;59.02;99952.16;5106549;28;43472;-73
2021/04/15 00:15:14;;;;;;;1.60;1.50;;;;;;;1.19;59.11;99954.78;5105457;27;42937;-73
2021/04/15 00:17:42;;;;;;;1.57;1.37;;;;;;;1.16;59.56;99954.78;5110789;28;40753;-73
2021/04/15 00:20:10;;;;;;;2.53;1.60;;;;;;;1.15;60.16;99953.03;5111986;27;41808;-73
2021/04/15 00:22:37;;;;;;;3.43;2.33;;;;;;;1.13;59.81;99954.78;5111326;28;42648;-72
2021/04/15 00:25:05;;;;;;;2.17;1.60;;;;;;;1.08;60.37;99942.66;5110308;28;43037;-73
2021/04/15 00:27:32;;;;;;;2.20;1.80;;;;;;;1.08;60.09;99947.03;5112379;27;39830;-73
2021/04/15 00:30:00;;;;;;;2.17;1.90;;;;;;;1.04;60.13;99951.38;5110542;28;41525;-73
2021/04/15 00:32:28;;;;;;;2.40;1.63;;;;;;;1.02;60.17;99947.91;5112274;27;42862;-73
2021/04/15 00:34:55;;;;;;;2.10;1.60;;;;;;;0.97;60.56;99939.28;5110329;28;41205;-73
2021/04/15 00:37:22;;;;;;;2.73;2.20;;;;;;;0.93;60.13;99934.94;5112066;27;40685;-73
2021/04/15 00:39:49;;;;;;;3.33;1.93;;;;;;;0.89;60.39;99941.03;5111805;27;41695;-73
2021/04/15 00:42:16;;;;;;;3.30;2.20;;;;;;;0.85;60.74;99934.13;5112120;27;43219;-73
2021/04/15 00:44:43;;;;;;;3.30;2.27;;;;;;;0.83;60.64;99945.44;5110657;28;42879;-73
2021/04/15 00:47:13;;;;;;;2.80;1.70;;;;;;;0.81;60.66;99936.75;5112078;27;40603;-73
2021/04/15 00:49:48;;;;;;;3.77;2.07;;;;;;;0.76;60.58;99944.59;5109769;28;41985;-73
2021/04/15 00:52:19;;;;;;;3.80;1.70;;;;;;;0.71;60.88;99939.44;5112121;27;42405;-73
2021/04/15 00:54:50;;;;;;;4.43;2.00;;;;;;;0.71;61.91;99931.59;5092783;28;41174;-73
2021/04/15 00:57:24;;;;;;;2.47;2.23;;;;;;;0.69;61.90;99932.47;5109938;28;40048;-73
2021/04/15 00:59:51;;;;;;;3.50;1.93;;;;;;;0.70;61.75;99929.00;5127136;27;41006;-72
2021/04/15 01:02:21;;;;;;;2.73;1.77;;;;;;;0.68;61.88;99935.97;5112181;27;42720;-73
2021/04/15 01:04:49;;;;;;;2.17;1.57;;;;;;;0.68;62.16;99935.97;5110046;28;42095;-74
2021/04/15 01:07:16;;;;;;;4.50;2.30;;;;;;;0.62;64.25;99915.13;5111425;27;41297;-73
2021/04/15 01:09:45;;;;;;;1.93;1.77;;;;;;;0.67;63.79;99932.50;5112012;27;41425;-73
2021/04/15 01:12:27;;;;;;;5.37;2.30;;;;;;;0.66;63.59;99935.09;5109826;28;41998;-73
2021/04/15 01:15:09;;;;;;;2.97;2.00;;;;;;;0.65;63.13;99935.97;5144257;27;42659;-73
2021/04/15 01:17:45;;;;;;;3.83;1.90;;;;;;;0.59;62.65;99929.06;5093291;28;39396;-73
2021/04/15 01:20:48;;;;;;;2.70;1.70;;;;;;;0.52;62.57;99931.69;5111696;27;41825;-73
2021/04/15 01:23:22;;;;;;;4.67;2.17;;;;;;;0.49;62.38;99921.31;5111092;27;42748;-73
2021/04/15 01:26:21;;;;;;;2.40;1.97;;;;;;;0.54;62.54;99937.78;5110918;27;42333;-73
2021/04/15 01:29:00;;;;;;;2.83;2.20;;;;;;;0.48;62.53;99930.88;5105643;28;40112;-73
2021/04/15 01:31:40;;;;;;;2.43;2.20;;;;;;;0.49;62.36;99949.97;5110486;27;41475;-73
2021/04/15 01:34:15;;;;;;;2.80;1.97;;;;;;;0.46;62.29;99940.41;5111707;27;42412;-72
2021/04/15 01:36:49;;;;;;;3.03;2.03;;;;;;;0.43;62.59;99934.34;5111474;27;41922;-73
2021/04/15 01:39:20;;;;;;;3.47;1.67;;;;;;;0.43;62.83;99936.94;5110901;27;39883;-73
2021/04/15 01:41:53;;;;;;;5.97;2.07;;;;;;;0.41;62.58;99936.09;5110488;28;41065;-74
2021/04/15 01:44:28;;;;;;;4.87;2.80;;;;;;;0.40;62.84;99934.34;5109235;28;43593;-73
2021/04/15 01:47:01;;;;;;;3.23;1.80;;;;;;;0.37;62.70;99934.41;5110656;27;41789;-72
2021/04/15 01:49:33;;;;;;;4.17;2.03;;;;;;;0.33;62.49;99931.78;5111425;27;39840;-71
2021/04/15 01:52:01;;;;;;;4.17;2.03;;;;;;;0.32;62.53;99934.41;5110857;27;41566;-74
2021/04/15 01:54:35;;;;;;;4.53;1.80;;;;;;;0.28;62.46;99936.13;5111135;27;42653;-72
2021/04/15 01:57:09;;;;;;;3.73;2.47;;;;;;;-0.12;62.64;99885.06;5108783;28;42188;-74
2021/04/15 02:00:01;;;;;;;1.63;1.53;;;;;;;0.20;62.48;99931.84;5125760;27;21023;-74
2021/04/15 02:02:37;;;;;;;2.60;1.40;;;;;;;0.21;63.28;99938.78;5124564;27;39739;-72
2021/04/15 02:05:11;;;;;;;4.17;1.87;;;;;;;0.20;64.28;99934.44;5126621;27;41684;-72
2021/04/15 02:07:43;;;;;;;4.40;2.43;;;;;;;0.22;65.58;99925.75;5126184;27;42600;-72
2021/04/15 02:10:13;;;;;;;3.03;2.27;;;;;;;0.22;65.37;99920.56;5125931;27;41920;-74
2021/04/15 02:12:44;;;;;;;2.60;2.10;;;;;;;0.20;64.61;99932.72;5125223;27;39659;-73
2021/04/15 02:15:18;;;;;;;2.43;2.20;;;;;;;0.17;64.25;99931.84;5159111;27;42507;-73
2021/04/15 02:17:47;;;;;;;2.17;1.90;;;;;;;0.16;64.13;99936.19;5126534;27;43214;-74
2021/04/15 02:20:16;;;;;;;2.90;1.90;;;;;;;0.15;64.46;99938.78;5124666;27;40507;-73
2021/04/15 02:22:48;;;;;;;2.80;2.30;;;;;;;0.06;64.00;99918.84;5125040;27;39622;-73
2021/04/15 02:25:21;;;;;;;5.80;2.43;;;;;;;0.10;64.07;99936.22;5125041;27;42432;-73
2021/04/15 02:27:56;;;;;;;2.63;2.00;;;;;;;0.06;64.11;99937.09;5125540;27;43042;-73
2021/04/15 02:30:29;;;;;;;3.43;2.40;;;;;;;0.07;64.66;99932.75;5126302;27;42892;-73
2021/04/15 02:33:02;;;;;;;1.83;1.73;;;;;;;0.06;64.90;99936.22;5124938;27;39812;-73
2021/04/15 02:35:35;;;;;;;2.73;2.03;;;;;;;0.04;64.89;99931.00;5125801;27;41262;-74
2021/04/15 02:38:03;;;;;;;2.83;2.13;;;;;;;0.02;64.58;99931.88;5124705;27;43230;-73
2021/04/15 02:40:33;;;;;;;2.73;2.50;;;;;;;-0.05;64.37;99938.84;5124039;27;42938;-73
2021/04/15 02:43:06;;;;;;;2.07;1.87;;;;;;;-0.02;64.26;99941.47;5124523;27;39920;-73
2021/04/15 02:45:39;;;;;;;2.83;1.97;;;;;;;-0.07;64.21;99938.00;5124382;27;42137;-74
2021/04/15 02:48:13;;;;;;;3.07;1.73;;;;;;;-0.07;64.25;99938.00;5125569;27;43230;-73
2021/04/15 02:50:43;;;;;;;1.97;1.80;;;;;;;-0.13;64.23;99940.63;5123789;27;41802;-73
2021/04/15 02:53:15;;;;;;;3.93;2.40;;;;;;;-0.12;64.19;99945.81;5125954;27;40383;-73
2021/04/15 02:55:51;;;;;;;2.23;2.00;;;;;;;-0.14;64.20;99946.69;5124993;27;42374;-73
2021/04/15 02:58:24;;;;;;;1.97;1.57;;;;;;;-0.16;64.03;99951.91;5123863;27;42855;-73
2021/04/15 03:00:55;;;;;;;1.40;1.30;;;;;;;-0.18;64.25;99947.56;5125644;27;41439;-73
2021/04/15 03:03:27;;;;;;;2.37;1.93;;;;;;;-0.17;64.20;99951.91;5125387;27;40564;-74
2021/04/15 03:05:59;;;;;;;2.30;2.00;;;;;;;-0.20;64.13;99946.69;5124919;27;42088;-72
2021/04/15 03:08:27;;;;;;;2.30;1.70;;;;;;;-0.28;64.05;99944.13;5123688;27;43567;-72
2021/04/15 03:10:59;;;;;;;1.83;1.57;;;;;;;-0.25;63.95;99944.13;5113485;27;42053;-72
2021/04/15 03:13:33;;;;;;;3.17;1.87;;;;;;;-0.26;63.95;99951.94;5109925;28;39897;-72
2021/04/15 03:16:03;;;;;;;2.10;1.90;;;;;;;-0.29;63.90;99942.38;5109553;28;41290;-72
2021/04/15 03:18:38;;;;;;;1.93;1.73;;;;;;;-0.36;64.13;99949.31;5110336;28;42479;-73
2021/04/15 03:21:10;;;;;;;2.30;2.00;;;;;;;-0.30;64.77;99947.59;5109558;28;41911;-72
2021/04/15 03:23:44;;;;;;;2.63;1.97;;;;;;;-0.33;64.92;99942.38;5111780;27;39957;-73
2021/04/15 03:26:23;;;;;;;3.10;2.33;;;;;;;-0.32;64.83;99951.91;5110849;27;41530;-72
2021/04/15 03:29:04;;;;;;;1.90;1.80;;;;;;;-0.34;64.91;99953.66;5109475;28;42720;-72
2021/04/15 03:31:42;;;;;;;3.10;1.77;;;;;;;-0.43;64.62;99944.13;5127452;27;41998;-72
2021/04/15 03:34:18;;;;;;;2.60;2.20;;;;;;;-0.40;64.51;99959.75;5111323;27;40788;-72
2021/04/15 03:36:49;;;;;;;2.67;2.10;;;;;;;-0.42;64.52;99962.34;5109742;28;41733;-72
2021/04/15 03:39:23;;;;;;;2.67;2.30;;;;;;;-0.46;64.59;99955.41;5110100;28;42153;-73
2021/04/15 03:41:54;;;;;;;3.83;2.50;;;;;;;-0.48;64.65;99962.34;5109042;28;42114;-73
2021/04/15 03:44:26;;;;;;;2.60;2.20;;;;;;;-0.49;64.67;99960.59;5111207;27;39674;-73
2021/04/15 03:46:59;;;;;;;2.47;2.23;;;;;;;-0.50;64.77;99961.50;5144044;27;40868;-73
2021/04/15 03:49:37;;;;;;;2.67;2.10;;;;;;;-0.51;65.10;99961.50;5109604;28;42706;-73
2021/04/15 03:52:10;;;;;;;3.70;1.93;;;;;;;-0.53;65.00;99958.88;5109652;28;42925;-72
2021/04/15 03:54:41;;;;;;;2.17;1.73;;;;;;;-0.58;64.71;99952.81;5109747;28;40522;-72
2021/04/15 03:57:14;;;;;;;2.60;1.87;;;;;;;-0.59;64.92;99958.00;5110453;28;41874;-72
2021/04/15 03:59:48;;;;;;;3.17;2.00;;;;;;;-0.56;65.19;99958.88;5110806;27;42671;-72
2021/04/15 04:02:20;;;;;;;4.63;2.60;;;;;;;-0.57;65.07;99953.69;5111312;27;42218;-72
2021/04/15 04:04:52;;;;;;;2.47;2.27;;;;;;;-0.59;64.98;99964.06;5111411;27;39624;-73
2021/04/15 04:07:24;;;;;;;4.53;2.67;;;;;;;-0.62;65.03;99958.03;5110266;28;40770;-72
2021/04/15 04:09:58;;;;;;;2.40;2.20;;;;;;;-0.66;64.95;99962.34;5109521;28;41630;-72
2021/04/15 04:12:34;;;;;;;4.30;2.23;;;;;;;-0.67;65.01;99975.34;5110320;27;42855;-73
2021/04/15 04:15:08;;;;;;;4.27;2.37;;;;;;;-0.73;65.01;99965.81;5143367;27;39901;-73
2021/04/15 04:17:43;;;;;;;2.67;2.23;;;;;;;-0.73;65.05;99965.81;5092213;28;41463;-72
2021/04/15 04:20:13;;;;;;;2.23;1.97;;;;;;;-0.72;65.15;99975.34;5110013;27;42945;-73
2021/04/15 04:22:49;;;;;;;2.40;2.20;;;;;;;-0.73;65.36;99971.00;5107394;28;42678;-72
2021/04/15 04:25:24;;;;;;;2.47;2.27;;;;;;;-0.72;65.41;99977.94;5109169;28;38385;-72
2021/04/15 04:27:56;;;;;;;2.57;2.33;;;;;;;-0.73;65.19;99977.06;5109619;27;41650;-72
2021/04/15 04:30:28;;;;;;;3.13;2.17;;;;;;;-0.75;65.45;99973.63;5109684;27;42792;-72
2021/04/15 04:33:00;;;;;;;3.17;2.57;;;;;;;-0.75;65.24;99977.97;5108275;27;41757;-73
2021/04/15 04:35:30;;;;;;;3.90;2.30;;;;;;;-0.75;65.21;99977.97;5108687;28;40558;-73
2021/04/15 04:38:02;;;;;;;4.37;2.60;;;;;;;-0.75;65.51;99973.63;5110092;27;42309;-72
2021/04/15 04:40:37;;;;;;;3.17;2.50;;;;;;;-0.74;65.57;99977.94;5108160;28;43382;-72
2021/04/15 04:43:12;;;;;;;2.60;2.40;;;;;;;-0.73;65.38;99982.28;5110294;27;42142;-73
2021/04/15 04:45:40;;;;;;;3.00;2.70;;;;;;;-0.70;65.67;99983.16;5110178;27;40061;-72
2021/04/15 04:48:16;;;;;;;6.77;2.67;;;;;;;-0.69;65.73;99985.75;5109090;28;40602;-72
2021/04/15 04:50:49;;;;;;;4.10;2.53;;;;;;;-0.65;65.84;99990.09;5107716;28;43422;-72
2021/04/15 04:53:24;;;;;;;2.70;2.13;;;;;;;-0.63;66.19;99988.38;5109608;27;41718;-72
2021/04/15 04:56:20;;;;;;;3.30;3.00;;;;;;;-0.59;66.01;99992.69;5108464;28;39666;-73
2021/04/15 04:58:52;;;;;;;4.03;2.53;;;;;;;-0.55;65.71;99986.63;5107858;28;40887;-73
2021/04/15 05:01:20;;;;;;;2.60;2.23;;;;;;;-0.53;65.75;99984.91;5092035;28;41571;-73
2021/04/15 05:03:48;;;;;;;5.80;2.70;;;;;;;-0.52;65.67;99986.66;5107868;28;42734;-73
2021/04/15 05:06:23;;;;;;;3.10;2.37;;;;;;;-0.57;65.91;99977.97;5109516;27;40573;-72
2021/04/15 05:08:56;;;;;;;4.13;2.90;;;;;;;-0.45;65.63;99995.31;5135588;27;42450;-73
2021/04/15 05:11:27;;;;;;;3.17;2.23;;;;;;;-0.41;65.51;99997.03;5088488;28;43358;-72
2021/04/15 05:13:54;;;;;;;3.57;2.90;;;;;;;-0.41;65.22;99992.72;5097637;28;42185;-73
2021/04/15 05:16:23;;;;;;;4.33;3.50;;;;;;;-0.31;65.45;99997.91;5109311;27;40613;-72
2021/04/15 05:18:52;;;;;;;16.57;9.87;;;;;;;-0.25;65.52;99997.91;5109205;27;41494;-72
2021/04/15 05:21:24;;;;;;;6.07;5.27;;;;;;;-0.19;65.78;99997.91;5107559;28;41440;-72
2021/04/15 05:23:56;;;;;;;7.57;5.23;;;;;;;-0.14;65.55;99998.78;5107315;28;42255;-72
2021/04/15 05:26:27;;;;;;;6.23;3.93;;;;;;;-0.05;65.31;99990.94;5109470;27;39620;-73
2021/04/15 05:28:56;;;;;;;8.43;4.13;;;;;;;0.28;64.97;100003.88;5107173;28;41555;-72
2021/04/15 05:31:27;;;;;;;4.97;3.47;;;;;;;0.55;64.21;100002.06;5109259;27;42684;-72
2021/04/15 05:33:58;;;;;;;3.80;3.40;;;;;;;0.78;63.96;100010.63;5108664;27;42360;-73
2021/04/15 05:36:31;;;;;;;4.37;3.07;;;;;;;0.88;63.96;100017.53;5109284;27;40712;-73
2021/04/15 05:39:00;;;;;;;4.40;3.40;;;;;;;1.00;63.86;100014.88;5109597;27;42391;-73
2021/04/15 05:41:30;;;;;;;4.13;3.57;;;;;;;1.17;63.63;100013.91;5108104;28;42807;-73
2021/04/15 05:44:02;;;;;;;3.10;2.80;;;;;;;1.31;63.45;100012.09;5107458;28;42895;-73
2021/04/15 05:46:37;;;;;;;4.17;3.57;;;;;;;1.45;63.49;100012.88;5109523;27;40606;-74
2021/04/15 05:49:09;;;;;;;4.50;3.53;;;;;;;1.58;63.33;100022.34;5106902;28;42147;-74
2021/04/15 05:51:45;;;;;;;5.80;4.10;;;;;;;1.58;63.42;100006.66;5108252;27;42502;-73
2021/04/15 05:54:16;;;;;;;4.37;3.50;;;;;;;1.73;63.55;100011.75;5105029;28;45438;-74
2021/04/15 05:56:56;;;;;;;6.03;3.93;;;;;;;1.83;63.51;100011.69;5109078;27;39588;-74
2021/04/15 05:59:30;;;;;;;5.33;4.10;;;;;;;1.98;63.31;100016.78;5106683;28;41752;-73
2021/04/15 06:02:11;;;;;;;4.40;4.00;;;;;;;2.30;62.70;100022.53;5109333;27;43032;-74
2021/04/15 06:04:44;;;;;;;6.10;3.93;;;;;;;2.97;61.16;100040.03;5108747;28;42078;-73
2021/04/15 06:07:17;;;;;;;5.43;4.90;;;;;;;3.70;59.71;100039.03;5107358;28;39775;-74
2021/04/15 06:09:44;;;;;;;5.53;3.50;;;;;;;4.22;58.78;100048.59;5107281;28;41617;-71
2021/04/15 06:12:18;;;;;;;5.10;3.80;;;;;;;4.41;58.77;100044.78;5107239;28;43223;-73
2021/04/15 06:14:51;;;;;;;6.43;4.77;;;;;;;4.31;59.43;100044.09;5107534;28;42260;-71
2021/04/15 06:17:29;;;;;;;5.13;3.93;;;;;;;4.30;59.80;100036.25;5109126;27;40024;-72
2021/04/15 06:20:03;;;;;;;4.70;3.87;;;;;;;4.35;59.81;100039.63;5140765;27;42654;-72
2021/04/15 06:22:32;;;;;;;8.93;5.97;;;;;;;4.41;59.97;100034.28;5090575;28;42001;-72
2021/04/15 06:25:04;;;;;;;6.13;5.17;;;;;;;4.44;60.01;100033.38;5107177;28;42238;-72
2021/04/15 06:27:32;;;;;;;6.97;5.23;;;;;;;4.58;59.73;100036.56;5106883;28;40565;-73
2021/04/15 06:30:05;;;;;;;6.60;5.97;;;;;;;4.63;59.61;100035.59;5106906;28;41036;-73
2021/04/15 06:32:39;;;;;;;6.80;5.30;;;;;;;4.58;59.56;100037.44;5108177;27;42545;-73
2021/04/15 06:35:19;;;;;;;5.47;4.87;;;;;;;4.49;59.83;100037.59;5107663;27;42022;-73
2021/04/15 06:37:50;;;;;;;6.57;4.87;;;;;;;4.55;59.91;100040.13;5108345;27;39480;-73
2021/04/15 06:40:52;;;;;;;7.23;5.43;;;;;;;4.65;59.63;100036.44;5107349;28;40687;-73
2021/04/15 06:43:43;;;;;;;8.23;4.87;;;;;;;4.90;59.34;100041.19;5107075;28;43529;-73
2021/04/15 06:46:24;;;;;;;9.00;6.30;;;;;;;5.01;58.94;100040.06;5110790;27;42862;-73
2021/04/15 06:49:21;;;;;;;7.07;5.20;;;;;;;5.16;58.90;100036.25;5110946;27;40357;-73
2021/04/15 06:51:57;;;;;;;6.53;5.37;;;;;;;5.35;58.79;100037.56;5110294;28;41651;-73
2021/04/15 06:54:43;;;;;;;7.43;5.20;;;;;;;5.54;58.33;100037.16;5111507;27;42740;-74
2021/04/15 06:57:43;;;;;;;6.17;5.20;;;;;;;5.64;58.60;100029.00;5112179;27;41969;-74
2021/04/15 07:00:20;;;;;;;7.00;6.20;;;;;;;5.77;58.32;100037.47;5110450;28;40479;-74
2021/04/15 07:03:12;;;;;;;7.67;6.20;;;;;;;5.89;59.66;100026.69;5111399;27;41662;-75
2021/04/15 07:05:47;;;;;;;10.07;6.60;;;;;;;6.00;59.52;100014.13;5097024;27;42852;-75
2021/04/15 07:08:57;;;;;;;10.23;7.17;;;;;;;6.41;59.09;100022.72;5111799;27;42445;-74
2021/04/15 07:11:38;;;;;;;9.90;6.77;;;;;;;6.81;58.67;100023.31;5085985;27;39644;-74
2021/04/15 07:14:27;;;;;;;9.53;6.70;;;;;;;7.40;57.58;100033.88;5110845;27;42023;-74
2021/04/15 07:17:32;;;;;;;7.77;6.93;;;;;;;8.47;54.14;100051.47;5110944;27;43528;-74
2021/04/15 07:20:47;;;;;;;14.00;6.97;;;;;;;9.49;51.62;100067.06;5097517;28;42661;-74
2021/04/15 07:23:45;;;;;;;8.30;6.17;;;;;;;10.29;50.36;100073.53;5110500;28;39005;-75
2021/04/15 07:26:40;;;;;;;6.47;5.60;;;;;;;10.75;49.24;100069.78;5123783;27;41742;-75
2021/04/15 07:29:35;;;;;;;6.43;5.83;;;;;;;11.05;48.07;100079.94;5089719;28;43419;-74
2021/04/15 07:32:31;;;;;;;7.27;6.03;;;;;;;11.31;47.57;100078.75;5105581;28;42569;-74
2021/04/15 07:35:22;;;;;;;8.47;5.93;;;;;;;11.65;46.64;100088.66;5110947;27;39927;-75
2021/04/15 07:38:14;;;;;;;6.90;6.20;;;;;;;12.22;44.33;100095.66;5110866;27;42415;-75
2021/04/15 07:40:59;;;;;;;6.40;5.80;;;;;;;12.70;43.39;100099.44;5109623;28;43025;-74
2021/04/15 07:43:43;;;;;;;7.70;6.50;;;;;;;13.36;42.26;100102.16;5109271;28;42879;-75
2021/04/15 07:46:15;;;;;;;7.97;5.80;;;;;;;13.62;41.54;100107.78;5109345;28;38843;-74
2021/04/15 07:49:07;;;;;;;8.67;5.87;;;;;;;13.89;40.36;100113.38;5110546;27;42491;-74
2021/04/15 07:52:22;;;;;;;10.13;6.10;;;;;;;14.61;39.13;100123.44;5092773;28;42200;-75
2021/04/15 07:55:24;;;;;;;7.07;6.37;;;;;;;16.18;37.28;100137.72;5030226;28;42934;-75
2021/04/15 07:58:11;;;;;;;6.10;5.50;;;;;;;17.33;35.09;100139.72;5110421;27;40805;-74
2021/04/15 08:01:22;;;;;;;6.97;5.60;;;;;;;17.79;33.67;100141.88;5109861;28;41833;-74
2021/04/15 08:04:32;;;;;;;6.10;5.50;;;;;;;17.76;33.41;100148.31;5079191;28;42806;-75
2021/04/15 08:07:35;;;;;;;7.67;5.67;;;;;;;17.29;33.42;100143.59;5078282;28;42701;-74
2021/04/15 08:10:24;;;;;;;5.67;5.17;;;;;;;16.78;33.83;100148.03;5091312;28;40628;-74
2021/04/15 08:13:05;;;;;;;6.43;5.73;;;;;;;16.16;33.24;100156.53;5111014;27;41667;-74
2021/04/15 08:15:46;;;;;;;5.73;4.90;;;;;;;15.64;35.20;100144.78;5110969;27;42582;-74
2021/04/15 08:18:29;;;;;;;5.60;5.07;;;;;;;15.36;35.54;100138.44;5109237;28;41545;-74
2021/04/15 08:21:09;;;;;;;6.60;4.90;;;;;;;15.19;35.93;100138.66;5109265;27;40746;-74
2021/04/15 08:24:12;;;;;;;6.30;5.70;;;;;;;15.22;36.32;100135.78;5109588;27;41380;-74
2021/04/15 08:27:04;;;;;;;6.40;4.63;;;;;;;15.35;36.10;100120.72;5111109;27;43198;-74
2021/04/15 08:29:46;;;;;;;5.40;4.90;;;;;;;15.64;36.22;100126.09;5109290;27;42967;-73
2021/04/15 08:32:26;;;;;;;6.40;5.20;;;;;;;15.68;35.36;100138.31;5111012;27;39738;-74
2021/04/15 08:35:10;;;;;;;6.37;5.77;;;;;;;15.69;34.45;100134.69;5109236;28;41031;-74
2021/04/15 08:37:47;;;;;;;6.20;5.60;;;;;;;15.93;35.05;100137.59;5110009;27;42264;-74
2021/04/15 08:40:24;;;;;;;5.93;5.00;;;;;;;15.85;34.83;100137.22;5108547;28;42695;-74
2021/04/15 08:43:05;;;;;;;5.80;5.30;;;;;;;17.01;34.14;100133.06;5109592;27;39901;-73
2021/04/15 08:45:49;;;;;;;6.80;5.73;;;;;;;20.33;30.25;100155.28;5110695;27;42548;-74
2021/04/15 08:48:30;;;;;;;5.90;5.17;;;;;;;22.40;26.27;100172.38;5109583;27;42612;-73
2021/04/15 08:51:08;;;;;;;7.00;5.17;;;;;;;24.03;24.76;100172.38;5108589;28;42941;-74
2021/04/15 08:54:04;;;;;;;9.30;7.37;;;;;;;25.18;23.18;100173.47;5109844;27;40647;-74
2021/04/15 08:56:36;;;;;;;5.67;4.70;;;;;;;26.03;20.77;100200.69;5108583;28;41464;-73
2021/04/15 08:59:15;;;;;;;5.07;4.53;;;;;;;26.44;20.35;100192.75;5108793;27;43237;-74
2021/04/15 09:01:52;;;;;;;5.13;4.63;;;;;;;27.10;20.40;100191.84;5108545;28;42232;-75
2021/04/15 09:04:31;;;;;;;5.50;4.90;;;;;;;27.83;20.11;100195.38;5109395;28;39085;-75
2021/04/15 09:07:08;;;;;;;4.43;4.03;;;;;;;27.85;19.77;100193.31;5108318;28;42352;-74
2021/04/15 09:09:47;;;;;;;4.23;3.83;;;;;;;25.96;20.60;100177.06;5109740;27;42658;-74
2021/04/15 09:12:29;;;;;;;4.83;4.43;;;;;;;23.84;21.27;100176.88;5125735;27;41140;-87
2021/04/15 09:15:11;;;;;;;4.87;4.47;;;;;;;23.22;22.53;100143.16;5107779;28;38740;-71
2021/04/15 09:17:44;;;;;;;4.57;4.07;;;;;;;24.34;22.34;100155.72;5108663;28;41716;-72
2021/04/15 09:20:21;;;;;;;5.60;4.13;;;;;;;23.59;21.47;100166.72;5107176;28;43534;-73
2021/04/15 09:23:08;;;;;;;3.87;3.57;;;;;;;23.55;20.59;100166.16;5091332;28;41335;-75
2021/04/15 09:25:45;;;;;;;4.17;3.60;;;;;;;23.26;21.59;100159.91;5107949;28;40749;-74
2021/04/15 09:28:22;;;;;;;4.90;3.83;;;;;;;23.31;21.13;100163.03;5109443;27;41432;-74
2021/04/15 09:31:09;;;;;;;5.60;4.00;;;;;;;22.58;21.82;100143.72;5109013;27;42361;-73
2021/04/15 09:34:34;;;;;;;6.27;4.03;;;;;;;21.54;22.97;100137.84;5108107;27;42677;-73
2021/04/15 09:37:19;;;;;;;4.93;3.83;;;;;;;20.30;23.15;100146.59;5107670;28;39538;-74
2021/04/15 09:39:57;;;;;;;4.70;3.10;;;;;;;19.13;24.27;100115.72;5108556;28;41459;-73
2021/04/15 09:42:52;;;;;;;5.20;2.93;;;;;;;18.33;25.04;100120.03;5088829;28;43408;-74
2021/04/15 09:45:29;;;;;;;4.27;3.00;;;;;;;17.64;26.09;100113.50;5093169;28;42325;-74
2021/04/15 09:48:13;;;;;;;4.17;3.43;;;;;;;17.13;27.24;100113.50;5090074;28;39422;-73
2021/04/15 09:50:49;;;;;;;5.00;3.60;;;;;;;16.56;27.70;100105.78;5107989;27;42168;-72
2021/04/15 09:53:40;;;;;;;4.97;3.60;;;;;;;15.92;28.93;100099.34;5108853;27;42745;-73
2021/04/15 09:56:23;;;;;;;6.47;3.43;;;;;;;15.40;29.47;100091.94;5108560;28;41245;-73
2021/04/15 09:58:58;;;;;;;7.80;3.80;;;;;;;15.18;31.21;100086.22;5107643;28;39027;-73
2021/04/15 10:01:32;;;;;;;4.70;3.80;;;;;;;15.12;31.59;100086.59;5109719;27;42497;-74
2021/04/15 10:04:04;;;;;;;7.00;3.40;;;;;;;15.07;31.33;100081.56;5107886;28;41946;-73
2021/04/15 10:06:36;;;;;;;4.80;3.47;;;;;;;15.07;31.54;100078.03;5108831;27;42611;-73
2021/04/15 10:09:24;;;;;;;5.17;3.80;;;;;;;15.12;31.39;100081.25;5107697;27;39407;-73
2021/04/15 10:12:02;;;;;;;6.83;3.97;;;;;;;15.15;31.48;100085.53;5090038;28;41701;-72
2021/04/15 10:14:39;;;;;;;15.73;4.20;;;;;;;15.13;31.33;100076.78;5107630;28;43484;-73
2021/04/15 10:17:18;;;;;;;4.93;3.57;;;;;;;14.91;31.33;100077.22;5106736;28;41110;-73
2021/04/15 10:20:02;;;;;;;4.83;3.10;;;;;;;14.63;30.88;100078.03;5089091;28;40649;-74
2021/04/15 10:22:43;;;;;;;6.00;3.07;;;;;;;14.60;29.89;100087.06;5091706;28;41557;-73
2021/04/15 10:25:14;;;;;;;4.70;2.30;;;;;;;14.62;29.37;100098.50;5084422;28;42729;-74
2021/04/15 10:27:58;;;;;;;3.67;2.43;;;;;;;14.63;29.61;100086.88;5110177;28;42221;-75
2021/04/15 10:30:57;;;;;;;3.37;2.00;;;;;;;14.71;27.99;100097.94;5110313;28;40616;-73
2021/04/15 10:33:45;;;;;;;3.97;2.03;;;;;;;15.37;27.75;100094.78;5110339;28;41638;-73
2021/04/15 10:36:55;;;;;;;2.83;1.77;;;;;;;17.12;26.17;100103.75;5145212;27;43240;-74
2021/04/15 10:39:59;;;;;;;3.87;1.90;;;;;;;20.75;24.54;100098.91;5051985;28;42719;-74
2021/04/15 10:43:09;;;;;;;3.70;2.10;;;;;;;24.67;21.17;100118.13;5068094;28;40342;-74
2021/04/15 10:45:54;;;;;;;3.47;2.23;;;;;;;26.31;18.48;100146.19;5111467;27;42385;-73
2021/04/15 10:48:32;;;;;;;3.53;2.30;;;;;;;26.91;17.83;100144.06;5110157;28;42306;-75
2021/04/15 10:51:07;;;;;;;3.00;2.70;;;;;;;26.82;16.94;100156.81;5110860;28;41092;-74
2021/04/15 10:53:47;;;;;;;3.83;2.47;;;;;;;26.54;18.36;100139.09;5111988;27;40654;-74
2021/04/15 10:56:45;;;;;;;3.40;2.87;;;;;;;25.61;17.46;100149.03;5111346;27;42418;-73
2021/04/15 10:59:35;;;;;;;3.47;2.47;;;;;;;24.48;18.48;100146.19;5091760;28;43031;-73
2021/04/15 11:02:28;;;;;;;3.10;2.83;;;;;;;22.75;20.32;100144.03;5088580;28;41344;-75
2021/04/15 11:05:15;;;;;;;3.57;2.60;;;;;;;21.24;22.08;100137.81;5110260;28;39957;-75
2021/04/15 11:07:42;;;;;;;4.43;2.50;;;;;;;19.72;24.35;100114.56;5110393;28;42449;-73
2021/04/15 11:10:17;;;;;;;2.87;2.40;;;;;;;19.10;25.21;100110.59;5110933;27;42420;-73
2021/04/15 11:12:45;;;;;;;5.83;2.90;;;;;;;18.43;26.67;100072.75;5110460;28;43231;-75
2021/04/15 11:15:22;;;;;;;3.53;2.83;;;;;;;18.07;27.72;100082.59;5111566;27;39421;-75
2021/04/15 11:17:53;;;;;;;4.20;3.10;;;;;;;17.43;29.34;100073.00;5109492;28;41284;-75
2021/04/15 11:20:26;;;;;;;4.03;3.17;;;;;;;17.08;29.71;100065.63;5108941;28;42780;-75
2021/04/15 11:23:00;;;;;;;3.10;2.83;;;;;;;17.46;29.46;100062.91;5109471;28;42142;-76
2021/04/15 11:25:31;;;;;;;2.90;2.30;;;;;;;18.64;28.45;100061.31;5110907;28;40200;-73
2021/04/15 11:28:01;;;;;;;3.27;2.87;;;;;;;19.65;27.66;100069.50;5110945;27;41679;-74
2021/04/15 11:30:34;;;;;;;4.73;3.23;;;;;;;20.64;25.41;100072.03;5109942;27;41983;-73
2021/04/15 11:33:02;;;;;;;3.87;2.83;;;;;;;21.08;26.28;100069.06;5109828;28;42112;-74
2021/04/15 11:35:29;;;;;;;4.13;3.20;;;;;;;21.98;25.18;100069.16;5109746;28;40023;-73
2021/04/15 11:38:24;;;;;;;3.10;2.80;;;;;;;24.18;22.09;100095.94;5110201;27;41723;-74
2021/04/15 11:40:53;;;;;;;4.00;2.80;;;;;;;25.85;19.69;100110.31;5119198;27;43142;-72
2021/04/15 11:43:28;;;;;;;2.47;2.10;;;;;;;27.52;18.01;100123.63;5089390;27;42321;-73
2021/04/15 11:46:13;;;;;;;5.80;2.40;;;;;;;28.70;17.11;100122.59;5090481;28;40867;-73
2021/04/15 11:48:40;;;;;;;3.63;3.00;;;;;;;29.46;18.17;100124.38;5089258;28;40872;-74
2021/04/15 11:51:15;;;;;;;3.40;1.90;;;;;;;28.14;14.87;100162.75;5086763;28;42903;-72
2021/04/15 11:53:46;;;;;;;3.83;1.70;;;;;;;26.33;15.17;100155.03;5110974;27;42715;-73
2021/04/15 11:56:38;;;;;;;5.17;2.27;;;;;;;26.16;16.50;100132.34;5111484;27;39892;-72
2021/04/15 11:59:25;;;;;;;3.13;1.50;;;;;;;25.21;17.05;100129.78;5089282;28;41770;-76
2021/04/15 12:02:11;;;;;;;4.03;2.10;;;;;;;24.59;17.81;100121.59;5092685;28;41619;-74
2021/04/15 12:04:39;;;;;;;2.97;1.93;;;;;;;24.62;17.82;100107.72;5110818;27;42197;-74
2021/04/15 12:07:12;;;;;;;2.57;1.90;;;;;;;24.91;16.36;100129.16;5091797;28;38672;-73
2021/04/15 12:09:39;;;;;;;2.57;1.70;;;;;;;25.60;16.62;100133.75;5109913;27;41508;-72
2021/04/15 12:12:13;;;;;;;3.33;1.40;;;;;;;26.74;16.29;100121.44;5110010;27;41968;-74
2021/04/15 12:14:42;;;;;;;3.47;1.73;;;;;;;26.31;15.72;100135.31;5092604;28;42083;-73
2021/04/15 12:17:32;;;;;;;2.83;1.60;;;;;;;27.09;15.99;100141.19;5108827;28;40195;-74
2021/04/15 12:20:08;;;;;;;3.63;1.90;;;;;;;28.43;13.86;100142.22;5109097;28;41614;-73